KCKN/CKN METAR and TAF weather

Enter ICAO airport designator
Station Type Date Time Source
KCKN METAR 2021/08/02 02:35 UTC NOAA

KCKN 020235Z AUTO 28003KT 7SM CLR 19/08 A3017 RMK AO2


Station Type Date Time Source
KCKN Decoded METAR 2021/08/02 02:35 UTC NOAA

Crookston Municipal Field, MN, United States (KCKN) 47-51N 096-37W
Aug 01, 2021 - 10:35 PM EDT / 2021.08.02 0235 UTC
Wind: from the W (280 degrees) at 3 MPH (3 KT):0
Visibility: 7 mile(s):0
Sky conditions: clear
Temperature: 66 F (19 C)
Dew Point: 46 F (8 C)
Relative Humidity: 48%
Pressure (altimeter): 30.17 in. Hg (1021 hPa)
ob: KCKN 020235Z AUTO 28003KT 7SM CLR 19/08 A3017 RMK AO2
cycle: 2

Station Type Date Time Source
KCKN TAF UTC NOAA

Error!

Example: see airport list